createdAt,value
2019-05-18T00:02:21.556Z,7.40
2019-05-18T00:04:52.156Z,6.50
2019-05-18T00:07:25.755Z,6.70
2019-05-18T00:09:56.309Z,7.37
2019-05-18T00:12:26.931Z,6.80
2019-05-18T00:14:57.507Z,6.63
2019-05-18T00:17:28.163Z,6.60
2019-05-18T00:19:58.700Z,6.47
2019-05-18T00:22:29.315Z,6.90
2019-05-18T00:24:59.872Z,6.50
2019-05-18T00:27:32.125Z,7.10
2019-05-18T00:30:02.698Z,5.47
2019-05-18T00:32:33.313Z,6.60
2019-05-18T00:35:03.936Z,6.90
2019-05-18T00:37:34.560Z,6.80
2019-05-18T00:40:07.588Z,6.50
2019-05-18T00:42:38.229Z,6.47
2019-05-18T00:45:11.253Z,5.50
2019-05-18T00:47:42.433Z,6.60
2019-05-18T00:50:13.408Z,5.57
2019-05-18T00:52:44.017Z,5.97
2019-05-18T00:55:14.764Z,5.23
2019-05-18T00:57:45.369Z,5.67
2019-05-18T01:00:16.591Z,5.40
2019-05-18T01:02:47.229Z,6.30
2019-05-18T01:05:17.868Z,6.20
2019-05-18T01:07:48.429Z,6.00
2019-05-18T01:10:18.977Z,6.23
2019-05-18T01:12:49.590Z,7.10
2019-05-18T01:15:20.633Z,5.80
2019-05-18T01:17:57.320Z,6.63
2019-05-18T01:20:23.524Z,5.83
2019-05-18T01:22:54.131Z,6.73
2019-05-18T01:25:24.640Z,6.63
2019-05-18T01:27:55.274Z,6.07
2019-05-18T01:30:26.787Z,5.90
2019-05-18T01:32:59.042Z,6.20
2019-05-18T01:35:29.605Z,6.97
2019-05-18T01:38:00.141Z,6.13
2019-05-18T01:40:30.753Z,5.87
2019-05-18T01:43:01.298Z,6.13
2019-05-18T01:45:31.875Z,5.93
2019-05-18T01:48:13.470Z,6.40
2019-05-18T01:50:34.758Z,5.40
2019-05-18T01:53:05.321Z,6.40
2019-05-18T01:55:35.921Z,6.10
2019-05-18T01:58:06.471Z,6.10
2019-05-18T02:00:37.109Z,6.23
2019-05-18T02:03:09.266Z,6.60
2019-05-18T02:05:39.863Z,5.70
2019-05-18T02:08:10.460Z,5.90
2019-05-18T02:10:41.008Z,5.90
2019-05-18T02:13:11.625Z,5.93
2019-05-18T02:15:42.191Z,6.30
2019-05-18T02:18:26.895Z,5.73
2019-05-18T02:20:45.077Z,6.97
2019-05-18T02:23:15.669Z,5.80
2019-05-18T02:25:46.263Z,6.50
2019-05-18T02:28:17.862Z,6.10
2019-05-18T02:30:49.790Z,6.47
2019-05-18T02:33:20.351Z,5.57
2019-05-18T02:35:50.909Z,6.10
2019-05-18T02:38:21.514Z,5.60
2019-05-18T02:40:52.074Z,6.10
2019-05-18T02:43:22.653Z,5.57
2019-05-18T02:45:53.181Z,5.77
2019-05-18T02:48:25.507Z,5.67
2019-05-18T02:50:56.080Z,5.90
2019-05-18T02:53:26.646Z,5.20
2019-05-18T02:55:57.228Z,6.60
2019-05-18T02:58:27.840Z,5.70
2019-05-18T03:00:58.397Z,5.60
2019-05-18T03:03:28.972Z,5.90
2019-05-18T03:05:59.745Z,5.87
2019-05-18T03:08:30.296Z,5.83
2019-05-18T03:11:01.226Z,5.67
2019-05-18T03:13:31.813Z,5.97
2019-05-18T03:16:02.609Z,5.10
2019-05-18T03:18:33.194Z,5.47
2019-05-18T03:21:03.762Z,5.87
2019-05-18T03:23:34.415Z,5.97
2019-05-18T03:26:04.964Z,6.10
2019-05-18T03:28:38.555Z,5.40
2019-05-18T03:31:09.137Z,5.67
2019-05-18T03:33:39.689Z,6.27
2019-05-18T03:36:10.263Z,5.77
2019-05-18T03:38:41.004Z,5.53
2019-05-18T03:41:11.524Z,5.70
2019-05-18T03:43:42.150Z,5.70
2019-05-18T03:46:12.688Z,5.57
2019-05-18T03:48:43.272Z,5.67
2019-05-18T03:51:13.869Z,5.83
2019-05-18T03:53:44.465Z,6.20
2019-05-18T03:56:15.042Z,5.37
2019-05-18T03:58:45.639Z,5.70
2019-05-18T04:01:16.214Z,5.53
2019-05-18T04:03:46.826Z,6.40
2019-05-18T04:06:17.364Z,5.30
2019-05-18T04:08:47.927Z,7.07
2019-05-18T04:11:18.552Z,5.53
2019-05-18T04:13:49.160Z,5.70
2019-05-18T04:16:19.674Z,5.57
2019-05-18T04:18:50.240Z,5.40
2019-05-18T04:21:20.773Z,5.87
2019-05-18T04:23:51.299Z,6.20
2019-05-18T04:26:21.952Z,6.17
2019-05-18T04:28:52.500Z,4.90
2019-05-18T04:31:23.137Z,5.63
2019-05-18T04:33:53.651Z,6.47
2019-05-18T04:36:24.251Z,5.70
2019-05-18T04:38:54.913Z,6.23
2019-05-18T04:41:25.528Z,5.20
2019-05-18T04:43:56.079Z,6.43
2019-05-18T04:46:26.668Z,6.17
2019-05-18T04:49:00.060Z,6.30
2019-05-18T04:51:31.773Z,6.53
2019-05-18T04:54:02.382Z,6.43
2019-05-18T04:56:34.337Z,5.10
2019-05-18T04:59:04.957Z,6.03
2019-05-18T05:01:35.546Z,6.10
2019-05-18T05:04:06.147Z,6.50
2019-05-18T05:06:36.753Z,5.93
2019-05-18T05:09:09.089Z,5.53
2019-05-18T05:11:39.655Z,6.80
2019-05-18T05:14:10.181Z,6.20
2019-05-18T05:16:41.749Z,5.93
2019-05-18T05:19:12.364Z,5.97
2019-05-18T05:21:42.912Z,5.93
2019-05-18T05:24:13.486Z,5.50
2019-05-18T05:26:44.121Z,5.80
2019-05-18T05:29:17.641Z,5.80
2019-05-18T05:31:48.275Z,5.57
2019-05-18T05:34:18.880Z,5.23
2019-05-18T05:36:49.474Z,6.40
2019-05-18T05:39:21.820Z,6.73
2019-05-18T05:41:52.384Z,5.60
2019-05-18T05:44:23.029Z,5.43
2019-05-18T05:46:53.591Z,5.90
2019-05-18T05:49:26.584Z,5.77
2019-05-18T05:51:57.160Z,6.47
2019-05-18T05:54:29.682Z,6.17
2019-05-18T05:57:00.291Z,6.07
2019-05-18T05:59:30.897Z,6.10
2019-05-18T06:02:01.504Z,6.67
2019-05-18T06:04:32.123Z,6.23
2019-05-18T06:07:02.682Z,7.27
2019-05-18T06:09:33.328Z,6.07
2019-05-18T06:12:04.746Z,7.17
2019-05-18T06:14:35.380Z,6.00
2019-05-18T06:17:08.402Z,7.00
2019-05-18T06:19:38.305Z,6.90
2019-05-18T06:22:10.147Z,5.80
2019-05-18T06:24:41.926Z,6.60
2019-05-18T06:27:12.481Z,7.10
2019-05-18T06:29:43.778Z,7.17
2019-05-18T06:32:14.417Z,7.70
2019-05-18T06:34:45.075Z,6.77
2019-05-18T06:37:15.633Z,6.80
2019-05-18T06:39:46.282Z,7.07
2019-05-18T06:42:16.969Z,7.47
2019-05-18T06:44:47.624Z,7.13
2019-05-18T06:47:18.185Z,7.00
2019-05-18T06:49:48.832Z,6.60
2019-05-18T06:52:19.398Z,7.57
2019-05-18T06:54:50.084Z,6.87
2019-05-18T06:57:23.102Z,7.53
2019-05-18T06:59:53.918Z,7.27
2019-05-18T07:02:24.521Z,7.57
2019-05-18T07:04:55.119Z,7.50
2019-05-18T07:07:27.452Z,7.97
2019-05-18T07:09:58.104Z,7.43
2019-05-18T07:12:29.011Z,8.90
2019-05-18T07:15:00.518Z,8.30
2019-05-18T07:17:34.501Z,7.40
2019-05-18T07:20:04.085Z,7.10
2019-05-18T07:22:34.672Z,6.90
2019-05-18T07:25:05.354Z,7.73
2019-05-18T07:27:37.650Z,8.17
2019-05-18T07:30:08.793Z,6.33
2019-05-18T07:32:40.718Z,6.90
2019-05-18T07:35:11.922Z,7.90
2019-05-18T07:37:42.533Z,6.90
2019-05-18T07:40:13.339Z,8.07
2019-05-18T07:42:43.890Z,6.47
2019-05-18T07:45:15.717Z,6.50
2019-05-18T07:47:46.280Z,6.83
2019-05-18T07:50:17.103Z,6.83
2019-05-18T07:52:47.751Z,5.70
2019-05-18T07:55:18.805Z,6.17
2019-05-18T07:57:49.481Z,5.00
2019-05-18T08:00:20.141Z,5.40
2019-05-18T08:02:50.674Z,4.67
2019-05-18T08:05:21.927Z,5.10
2019-05-18T08:07:52.596Z,4.70
2019-05-18T08:10:36.954Z,4.23
2019-05-18T08:13:08.355Z,5.30
2019-05-18T08:15:39.057Z,4.40
2019-05-18T08:18:09.637Z,4.13
2019-05-18T08:20:40.236Z,4.70
2019-05-18T08:23:10.813Z,4.40
2019-05-18T08:25:41.419Z,4.70
2019-05-18T08:28:11.996Z,4.27
2019-05-18T08:30:42.569Z,4.00
2019-05-18T08:33:17.079Z,4.37
2019-05-18T08:35:47.707Z,4.60
2019-05-18T08:38:18.295Z,4.77
2019-05-18T08:40:48.936Z,4.87
2019-05-18T08:43:20.626Z,4.50
2019-05-18T08:45:52.447Z,4.53
2019-05-18T08:48:23.039Z,4.63
2019-05-18T08:50:53.641Z,4.10
2019-05-18T08:53:24.217Z,4.07
2019-05-18T08:55:54.830Z,4.00
2019-05-18T08:58:25.496Z,3.70
2019-05-18T09:00:56.070Z,5.10
2019-05-18T09:03:26.668Z,4.77
2019-05-18T09:05:57.315Z,3.60
2019-05-18T09:08:27.913Z,4.37
2019-05-18T09:10:58.476Z,3.80
2019-05-18T09:13:29.108Z,3.47
2019-05-18T09:15:59.758Z,3.40
2019-05-18T09:18:30.321Z,2.73
2019-05-18T09:21:00.906Z,3.57
2019-05-18T09:23:33.499Z,3.40
2019-05-18T09:26:04.096Z,2.97
2019-05-18T09:28:34.721Z,3.03
2019-05-18T09:31:05.299Z,3.17
2019-05-18T09:33:35.913Z,3.40
2019-05-18T09:36:06.483Z,3.17
2019-05-18T09:38:41.687Z,3.57
2019-05-18T09:41:11.813Z,3.00
2019-05-18T09:43:42.411Z,2.70
2019-05-18T09:46:14.671Z,2.83
2019-05-18T09:48:45.220Z,3.30
2019-05-18T09:51:15.869Z,3.40
2019-05-18T09:53:51.447Z,3.10
2019-05-18T09:56:18.801Z,2.93
2019-05-18T09:58:50.507Z,3.00
2019-05-18T10:01:21.108Z,3.00
2019-05-18T10:03:51.889Z,2.90
2019-05-18T10:06:22.523Z,2.80
2019-05-18T10:08:53.082Z,2.87
2019-05-18T10:11:23.794Z,2.30
2019-05-18T10:13:54.904Z,2.50
2019-05-18T10:16:25.528Z,3.00
2019-05-18T10:18:56.098Z,3.07
2019-05-18T10:21:26.694Z,2.70
2019-05-18T10:23:57.273Z,2.60
2019-05-18T10:26:27.880Z,3.20
2019-05-18T10:28:58.476Z,2.30
2019-05-18T10:31:29.078Z,2.90
2019-05-18T10:33:59.632Z,2.93
2019-05-18T10:36:30.166Z,3.17
2019-05-18T10:39:00.786Z,2.90
2019-05-18T10:41:31.461Z,2.70
2019-05-18T10:44:02.057Z,3.90
2019-05-18T10:46:33.439Z,3.10
2019-05-18T10:49:04.046Z,2.60
2019-05-18T10:51:34.682Z,2.97
2019-05-18T10:54:05.258Z,3.30
2019-05-18T10:56:35.837Z,3.77
2019-05-18T10:59:06.498Z,3.00
2019-05-18T11:01:37.079Z,2.93
2019-05-18T11:04:10.431Z,2.60
2019-05-18T11:06:41.042Z,2.67
2019-05-18T11:09:11.624Z,2.80
2019-05-18T11:11:43.919Z,3.03
2019-05-18T11:14:14.471Z,2.67
2019-05-18T11:16:45.502Z,3.70
2019-05-18T11:19:16.326Z,2.90
2019-05-18T11:21:46.962Z,5.40
2019-05-18T11:24:17.578Z,3.77
2019-05-18T11:26:48.197Z,3.57
2019-05-18T11:29:22.645Z,3.17
2019-05-18T11:31:51.158Z,3.00
2019-05-18T11:34:21.781Z,3.10
2019-05-18T11:36:52.432Z,2.87
2019-05-18T11:39:22.993Z,3.20
2019-05-18T11:41:53.629Z,3.73
2019-05-18T11:44:24.183Z,3.87
2019-05-18T11:46:55.973Z,3.00
2019-05-18T11:49:29.045Z,3.10
2019-05-18T11:51:58.899Z,3.07
2019-05-18T11:54:29.495Z,3.30
2019-05-18T11:57:00.107Z,3.50
2019-05-18T11:59:30.800Z,3.70
2019-05-18T12:02:01.480Z,3.00
2019-05-18T12:04:32.038Z,3.00
2019-05-18T12:07:02.669Z,3.90
2019-05-18T12:09:33.200Z,4.70
2019-05-18T12:12:03.837Z,3.23
2019-05-18T12:14:36.106Z,4.20
2019-05-18T12:17:06.734Z,4.80
2019-05-18T12:19:37.390Z,3.90
2019-05-18T12:22:08.134Z,4.00
2019-05-18T12:24:38.713Z,4.00
2019-05-18T12:27:10.611Z,3.90
2019-05-18T12:29:41.160Z,3.90
2019-05-18T12:32:11.846Z,3.40
2019-05-18T12:34:44.954Z,3.80
2019-05-18T12:37:23.145Z,5.07
2019-05-18T12:39:54.859Z,3.97
2019-05-18T12:42:25.523Z,4.33
2019-05-18T12:44:56.088Z,3.60
2019-05-18T12:47:26.785Z,3.77
2019-05-18T12:49:57.407Z,3.60
2019-05-18T12:52:27.976Z,3.37
2019-05-18T12:54:58.584Z,3.33
2019-05-18T12:57:29.176Z,3.47
2019-05-18T13:00:02.943Z,3.17
2019-05-18T13:02:33.653Z,3.50
2019-05-18T13:05:04.374Z,3.33
2019-05-18T13:07:36.417Z,3.20
2019-05-18T13:10:08.014Z,3.67
2019-05-18T13:12:38.677Z,2.93
2019-05-18T13:15:12.905Z,2.70
2019-05-18T13:17:43.499Z,2.40
2019-05-18T13:20:17.678Z,2.73
2019-05-18T13:22:48.329Z,2.93
2019-05-18T13:25:19.380Z,2.30
2019-05-18T13:27:50.021Z,2.40
2019-05-18T13:30:22.669Z,2.97
2019-05-18T13:32:53.222Z,2.80
2019-05-18T13:35:23.795Z,2.40
2019-05-18T13:37:54.408Z,2.40
2019-05-18T13:40:25.050Z,2.40
2019-05-18T13:42:55.652Z,2.00
2019-05-18T13:45:26.253Z,2.07
2019-05-18T13:47:56.875Z,2.40
2019-05-18T13:50:27.415Z,2.43
2019-05-18T13:52:58.098Z,2.30
2019-05-18T13:55:30.282Z,2.50
2019-05-18T13:58:00.943Z,2.37
2019-05-18T14:00:31.491Z,2.70
2019-05-18T14:03:02.160Z,2.63
2019-05-18T14:05:35.543Z,2.53
2019-05-18T14:08:06.274Z,2.50
2019-05-18T14:10:36.794Z,2.50
2019-05-18T14:13:07.457Z,2.13
2019-05-18T14:15:38.115Z,2.50
2019-05-18T14:18:08.797Z,2.50
2019-05-18T14:20:39.351Z,2.17
2019-05-18T14:23:11.103Z,2.50
2019-05-18T14:25:46.155Z,2.03
2019-05-18T14:28:19.284Z,2.87
2019-05-18T14:30:49.885Z,2.30
2019-05-18T14:33:20.481Z,2.77
2019-05-18T14:35:51.092Z,3.13
2019-05-18T14:38:21.709Z,3.03
2019-05-18T14:40:52.246Z,3.03
2019-05-18T14:43:28.983Z,2.20
2019-05-18T14:45:59.606Z,5.73
2019-05-18T14:48:33.872Z,1.60
2019-05-18T14:51:04.428Z,2.30
2019-05-18T14:53:35.103Z,2.40
2019-05-18T14:56:06.351Z,2.57
2019-05-18T14:58:36.947Z,2.50
2019-05-18T15:01:07.593Z,2.73
2019-05-18T15:03:38.314Z,2.33
2019-05-18T15:06:08.889Z,2.33
2019-05-18T15:08:39.515Z,2.57
2019-05-18T15:11:10.102Z,2.40
2019-05-18T15:13:40.775Z,2.20
2019-05-18T15:16:11.402Z,2.30
2019-05-18T15:18:42.030Z,2.40
2019-05-18T15:21:12.670Z,2.40
2019-05-18T15:23:43.344Z,2.20
2019-05-18T15:26:14.082Z,2.70
2019-05-18T15:28:44.711Z,2.47
2019-05-18T15:31:17.559Z,2.17
2019-05-18T15:33:48.260Z,3.17
2019-05-18T15:36:20.906Z,2.70
2019-05-18T15:38:51.553Z,2.50
2019-05-18T15:41:22.093Z,2.20
2019-05-18T15:43:52.733Z,2.27
2019-05-18T15:46:26.397Z,2.40
2019-05-18T15:48:57.231Z,2.30
2019-05-18T15:51:27.951Z,2.70
2019-05-18T15:53:58.633Z,2.23
2019-05-18T15:56:29.317Z,2.27
2019-05-18T15:59:00.108Z,2.40
2019-05-18T16:01:30.724Z,2.50
2019-05-18T16:04:01.432Z,2.50
2019-05-18T16:06:33.349Z,3.03
2019-05-18T16:09:05.525Z,2.57
2019-05-18T16:11:36.076Z,2.30
2019-05-18T16:14:06.841Z,2.50
2019-05-18T16:16:38.096Z,2.77
2019-05-18T16:19:08.752Z,2.57
2019-05-18T16:21:39.820Z,3.33
2019-05-18T16:24:10.455Z,2.70
2019-05-18T16:26:41.036Z,2.00
2019-05-18T16:29:13.065Z,11.47
2019-05-18T16:31:43.667Z,2.23
2019-05-18T16:34:14.375Z,2.03
2019-05-18T16:36:45.090Z,2.30
2019-05-18T16:39:15.701Z,2.50
2019-05-18T16:41:47.001Z,2.57
2019-05-18T16:44:17.589Z,2.33
2019-05-18T16:46:48.205Z,2.63
2019-05-18T16:49:18.877Z,2.20
2019-05-18T16:51:50.495Z,1.97
2019-05-18T16:54:21.179Z,2.17
2019-05-18T17:01:00.426Z,2.40
2019-05-18T17:06:38.776Z,2.77
2019-05-18T17:13:04.595Z,2.30
2019-05-18T17:19:32.218Z,2.53
2019-05-18T17:26:09.132Z,2.43
2019-05-18T17:32:39.894Z,2.33
2019-05-18T17:39:07.793Z,2.30
2019-05-18T17:45:49.048Z,2.40
2019-05-18T17:52:14.642Z,2.47
2019-05-18T17:58:41.700Z,3.03
2019-05-18T18:05:07.521Z,3.10
2019-05-18T18:14:43.217Z,3.00
2019-05-18T18:21:22.861Z,3.20
2019-05-18T18:27:52.028Z,2.63
2019-05-18T18:34:16.596Z,3.40
2019-05-18T18:40:42.448Z,3.20
2019-05-18T18:47:11.171Z,3.60
2019-05-18T18:53:39.378Z,2.77
2019-05-18T19:00:06.964Z,2.90
2019-05-18T19:06:44.128Z,2.70
2019-05-18T19:16:47.099Z,3.10
2019-05-18T19:23:12.916Z,3.67
2019-05-18T19:29:38.513Z,3.27
2019-05-18T19:36:17.470Z,8.13
2019-05-18T19:42:41.281Z,2.60
2019-05-18T19:49:08.761Z,3.03
2019-05-18T19:55:38.184Z,3.00
2019-05-18T20:02:19.154Z,3.30
2019-05-18T20:08:21.392Z,3.43
2019-05-18T20:14:51.397Z,3.70
2019-05-18T20:21:22.111Z,4.07
2019-05-18T20:27:50.305Z,3.50
2019-05-18T20:34:16.132Z,3.30
2019-05-18T20:40:41.943Z,3.47
2019-05-18T20:47:20.668Z,4.17
2019-05-18T20:53:46.511Z,3.87
2019-05-18T20:59:34.153Z,4.07
2019-05-18T21:06:01.997Z,4.10
2019-05-18T21:12:40.715Z,3.50
2019-05-18T21:18:56.320Z,3.40
2019-05-18T21:25:24.519Z,4.47
2019-05-18T21:31:54.369Z,4.83
2019-05-18T21:38:22.206Z,4.37
2019-05-18T21:44:51.053Z,4.60
2019-05-18T21:51:16.634Z,4.37
2019-05-18T21:57:57.841Z,4.40
2019-05-18T22:04:21.438Z,4.50
2019-05-18T22:10:48.471Z,4.30
2019-05-18T22:20:50.229Z,3.90
2019-05-18T22:27:29.188Z,4.23
2019-05-18T22:33:52.992Z,4.33
2019-05-18T22:40:22.036Z,4.27
2019-05-18T22:46:49.873Z,3.67
2019-05-18T22:53:26.801Z,4.07
2019-05-18T22:59:54.411Z,3.63
2019-05-18T23:06:20.268Z,3.10
2019-05-18T23:12:57.181Z,2.70
2019-05-18T23:22:47.005Z,2.60
2019-05-18T23:29:00.931Z,2.40
2019-05-18T23:35:28.773Z,2.40
2019-05-18T23:41:54.595Z,2.60
2019-05-18T23:48:31.521Z,2.60
2019-05-18T23:54:57.341Z,2.90
